sensor_id;sensor_type;location;lat;lon;timestamp;P1;durP1;ratioP1;P2;durP2;ratioP2
74939;SDS011;63505;45.226;37.908;2022-11-15T00:00:03;30.42;;;12.65;;
74939;SDS011;63505;45.226;37.908;2022-11-15T00:02:48;30.60;;;12.10;;
74939;SDS011;63505;45.226;37.908;2022-11-15T00:05:34;29.00;;;12.52;;
74939;SDS011;63505;45.226;37.908;2022-11-15T00:08:18;32.47;;;13.15;;
74939;SDS011;63505;45.226;37.908;2022-11-15T00:11:02;35.28;;;13.57;;
74939;SDS011;63505;45.226;37.908;2022-11-15T00:13:46;26.33;;;11.25;;
74939;SDS011;63505;45.226;37.908;2022-11-15T00:16:31;28.35;;;13.40;;
74939;SDS011;63505;45.226;37.908;2022-11-15T00:19:15;31.05;;;12.75;;
74939;SDS011;63505;45.226;37.908;2022-11-15T00:21:59;22.60;;;11.10;;
74939;SDS011;63505;45.226;37.908;2022-11-15T00:24:43;26.52;;;12.57;;
74939;SDS011;63505;45.226;37.908;2022-11-15T00:27:27;32.17;;;13.50;;
74939;SDS011;63505;45.226;37.908;2022-11-15T00:30:11;32.83;;;12.90;;
74939;SDS011;63505;45.226;37.908;2022-11-15T00:32:55;31.48;;;12.65;;
74939;SDS011;63505;45.226;37.908;2022-11-15T00:35:40;25.23;;;12.88;;
74939;SDS011;63505;45.226;37.908;2022-11-15T00:38:24;28.92;;;12.10;;
74939;SDS011;63505;45.226;37.908;2022-11-15T00:41:08;27.52;;;12.13;;
74939;SDS011;63505;45.226;37.908;2022-11-15T00:43:52;24.92;;;12.50;;
74939;SDS011;63505;45.226;37.908;2022-11-15T00:46:37;33.22;;;12.20;;
74939;SDS011;63505;45.226;37.908;2022-11-15T00:49:21;32.13;;;13.63;;
74939;SDS011;63505;45.226;37.908;2022-11-15T00:52:05;38.60;;;13.88;;
74939;SDS011;63505;45.226;37.908;2022-11-15T00:54:49;23.67;;;10.43;;
74939;SDS011;63505;45.226;37.908;2022-11-15T00:57:33;24.42;;;11.60;;
74939;SDS011;63505;45.226;37.908;2022-11-15T01:00:17;33.53;;;11.98;;
74939;SDS011;63505;45.226;37.908;2022-11-15T01:03:02;26.33;;;10.68;;
74939;SDS011;63505;45.226;37.908;2022-11-15T01:05:46;32.05;;;12.38;;
74939;SDS011;63505;45.226;37.908;2022-11-15T01:08:31;22.80;;;11.95;;
74939;SDS011;63505;45.226;37.908;2022-11-15T01:11:15;27.00;;;11.13;;
74939;SDS011;63505;45.226;37.908;2022-11-15T01:14:00;28.30;;;9.73;;
74939;SDS011;63505;45.226;37.908;2022-11-15T01:16:44;25.98;;;11.48;;
74939;SDS011;63505;45.226;37.908;2022-11-15T01:19:28;20.50;;;11.20;;
74939;SDS011;63505;45.226;37.908;2022-11-15T01:22:12;25.63;;;10.90;;
74939;SDS011;63505;45.226;37.908;2022-11-15T01:24:56;25.23;;;11.48;;
74939;SDS011;63505;45.226;37.908;2022-11-15T01:27:40;27.92;;;10.13;;
74939;SDS011;63505;45.226;37.908;2022-11-15T01:30:24;30.60;;;13.50;;
74939;SDS011;63505;45.226;37.908;2022-11-15T01:33:09;22.70;;;11.18;;
74939;SDS011;63505;45.226;37.908;2022-11-15T01:35:53;31.35;;;12.07;;
74939;SDS011;63505;45.226;37.908;2022-11-15T01:38:38;29.85;;;12.98;;
74939;SDS011;63505;45.226;37.908;2022-11-15T01:41:24;34.72;;;13.23;;
74939;SDS011;63505;45.226;37.908;2022-11-15T01:47:13;40.80;;;12.93;;
74939;SDS011;63505;45.226;37.908;2022-11-15T01:50:00;30.83;;;10.68;;
74939;SDS011;63505;45.226;37.908;2022-11-15T01:52:45;31.08;;;11.40;;
74939;SDS011;63505;45.226;37.908;2022-11-15T01:55:29;19.77;;;10.57;;
74939;SDS011;63505;45.226;37.908;2022-11-15T01:58:13;26.10;;;10.10;;
74939;SDS011;63505;45.226;37.908;2022-11-15T02:00:57;20.73;;;10.15;;
74939;SDS011;63505;45.226;37.908;2022-11-15T02:03:52;21.50;;;8.27;;
74939;SDS011;63505;45.226;37.908;2022-11-15T02:06:36;21.42;;;9.23;;
74939;SDS011;63505;45.226;37.908;2022-11-15T02:09:21;17.05;;;7.20;;
74939;SDS011;63505;45.226;37.908;2022-11-15T02:12:06;15.70;;;7.88;;
74939;SDS011;63505;45.226;37.908;2022-11-15T02:14:52;10.88;;;6.05;;
74939;SDS011;63505;45.226;37.908;2022-11-15T02:17:48;20.73;;;7.15;;
74939;SDS011;63505;45.226;37.908;2022-11-15T02:29:08;16.05;;;7.25;;
74939;SDS011;63505;45.226;37.908;2022-11-15T02:31:56;13.90;;;7.25;;
74939;SDS011;63505;45.226;37.908;2022-11-15T02:37:32;16.70;;;7.07;;
74939;SDS011;63505;45.226;37.908;2022-11-15T02:40:38;19.65;;;8.07;;
74939;SDS011;63505;45.226;37.908;2022-11-15T02:43:36;20.75;;;8.90;;
74939;SDS011;63505;45.226;37.908;2022-11-15T02:49:47;17.35;;;8.15;;
74939;SDS011;63505;45.226;37.908;2022-11-15T02:52:31;19.40;;;8.13;;
74939;SDS011;63505;45.226;37.908;2022-11-15T03:09:54;20.58;;;9.95;;
74939;SDS011;63505;45.226;37.908;2022-11-15T03:15:29;33.38;;;11.95;;
74939;SDS011;63505;45.226;37.908;2022-11-15T03:18:19;32.53;;;10.48;;
74939;SDS011;63505;45.226;37.908;2022-11-15T03:21:06;27.92;;;10.95;;
74939;SDS011;63505;45.226;37.908;2022-11-15T03:23:51;27.25;;;11.98;;
74939;SDS011;63505;45.226;37.908;2022-11-15T03:26:37;36.83;;;12.23;;
74939;SDS011;63505;45.226;37.908;2022-11-15T03:29:24;22.25;;;10.40;;
74939;SDS011;63505;45.226;37.908;2022-11-15T03:32:12;45.58;;;14.30;;
74939;SDS011;63505;45.226;37.908;2022-11-15T03:37:48;34.17;;;12.75;;
74939;SDS011;63505;45.226;37.908;2022-11-15T03:46:32;36.20;;;15.55;;
74939;SDS011;63505;45.226;37.908;2022-11-15T03:49:19;41.58;;;14.00;;
74939;SDS011;63505;45.226;37.908;2022-11-15T03:52:06;21.52;;;11.10;;
74939;SDS011;63505;45.226;37.908;2022-11-15T03:54:53;31.00;;;13.45;;
74939;SDS011;63505;45.226;37.908;2022-11-15T03:57:37;18.27;;;11.50;;
74939;SDS011;63505;45.226;37.908;2022-11-15T04:00:22;27.60;;;11.70;;
74939;SDS011;63505;45.226;37.908;2022-11-15T04:03:06;38.15;;;12.30;;
74939;SDS011;63505;45.226;37.908;2022-11-15T04:05:51;37.33;;;12.60;;
74939;SDS011;63505;45.226;37.908;2022-11-15T04:08:35;33.55;;;10.80;;
74939;SDS011;63505;45.226;37.908;2022-11-15T04:11:19;26.60;;;10.68;;
74939;SDS011;63505;45.226;37.908;2022-11-15T04:14:04;35.53;;;13.10;;
74939;SDS011;63505;45.226;37.908;2022-11-15T04:16:48;36.88;;;12.73;;
74939;SDS011;63505;45.226;37.908;2022-11-15T04:19:32;30.48;;;9.20;;
74939;SDS011;63505;45.226;37.908;2022-11-15T04:22:35;61.22;;;7.88;;
74939;SDS011;63505;45.226;37.908;2022-11-15T04:25:38;37.97;;;5.88;;
74939;SDS011;63505;45.226;37.908;2022-11-15T04:28:22;19.30;;;7.57;;
74939;SDS011;63505;45.226;37.908;2022-11-15T04:31:06;22.33;;;7.10;;
74939;SDS011;63505;45.226;37.908;2022-11-15T04:33:50;27.77;;;8.23;;
74939;SDS011;63505;45.226;37.908;2022-11-15T04:36:34;65.25;;;11.18;;
74939;SDS011;63505;45.226;37.908;2022-11-15T04:39:37;38.88;;;9.57;;
74939;SDS011;63505;45.226;37.908;2022-11-15T04:42:21;42.05;;;9.68;;
74939;SDS011;63505;45.226;37.908;2022-11-15T04:45:05;17.88;;;7.15;;
74939;SDS011;63505;45.226;37.908;2022-11-15T04:47:50;20.95;;;7.55;;
74939;SDS011;63505;45.226;37.908;2022-11-15T04:50:34;17.95;;;6.97;;
74939;SDS011;63505;45.226;37.908;2022-11-15T04:53:18;36.33;;;7.82;;
74939;SDS011;63505;45.226;37.908;2022-11-15T04:56:02;27.38;;;6.65;;
74939;SDS011;63505;45.226;37.908;2022-11-15T04:58:50;21.50;;;6.93;;
74939;SDS011;63505;45.226;37.908;2022-11-15T05:01:34;14.45;;;6.72;;
74939;SDS011;63505;45.226;37.908;2022-11-15T05:04:18;17.73;;;7.07;;
74939;SDS011;63505;45.226;37.908;2022-11-15T05:07:02;56.25;;;10.27;;
74939;SDS011;63505;45.226;37.908;2022-11-15T05:09:50;15.20;;;6.70;;
74939;SDS011;63505;45.226;37.908;2022-11-15T05:12:34;14.82;;;5.30;;
74939;SDS011;63505;45.226;37.908;2022-11-15T05:15:19;17.50;;;7.93;;
74939;SDS011;63505;45.226;37.908;2022-11-15T05:18:03;26.23;;;7.47;;
74939;SDS011;63505;45.226;37.908;2022-11-15T05:20:47;18.95;;;7.63;;
74939;SDS011;63505;45.226;37.908;2022-11-15T05:23:31;26.70;;;8.07;;
74939;SDS011;63505;45.226;37.908;2022-11-15T05:26:16;36.58;;;8.50;;
74939;SDS011;63505;45.226;37.908;2022-11-15T05:29:01;17.15;;;7.30;;
74939;SDS011;63505;45.226;37.908;2022-11-15T05:31:45;42.60;;;10.77;;
74939;SDS011;63505;45.226;37.908;2022-11-15T05:34:29;33.08;;;7.72;;
74939;SDS011;63505;45.226;37.908;2022-11-15T05:37:13;58.88;;;10.57;;
74939;SDS011;63505;45.226;37.908;2022-11-15T05:39:58;37.83;;;7.60;;
74939;SDS011;63505;45.226;37.908;2022-11-15T05:42:42;26.35;;;11.88;;
74939;SDS011;63505;45.226;37.908;2022-11-15T05:45:27;60.55;;;18.85;;
74939;SDS011;63505;45.226;37.908;2022-11-15T05:48:12;42.67;;;13.10;;
74939;SDS011;63505;45.226;37.908;2022-11-15T05:50:56;34.38;;;12.73;;
74939;SDS011;63505;45.226;37.908;2022-11-15T05:53:41;49.28;;;12.20;;
74939;SDS011;63505;45.226;37.908;2022-11-15T05:56:25;37.63;;;15.23;;
74939;SDS011;63505;45.226;37.908;2022-11-15T05:59:09;47.47;;;15.00;;
74939;SDS011;63505;45.226;37.908;2022-11-15T06:01:54;72.60;;;25.90;;
74939;SDS011;63505;45.226;37.908;2022-11-15T06:04:38;58.58;;;17.38;;
74939;SDS011;63505;45.226;37.908;2022-11-15T06:07:22;62.42;;;23.40;;
74939;SDS011;63505;45.226;37.908;2022-11-15T06:10:06;83.13;;;25.73;;
74939;SDS011;63505;45.226;37.908;2022-11-15T06:13:00;72.57;;;15.82;;
74939;SDS011;63505;45.226;37.908;2022-11-15T06:15:45;49.72;;;16.23;;
74939;SDS011;63505;45.226;37.908;2022-11-15T06:18:31;23.70;;;10.32;;
74939;SDS011;63505;45.226;37.908;2022-11-15T06:21:16;22.27;;;8.20;;
74939;SDS011;63505;45.226;37.908;2022-11-15T06:24:00;24.05;;;11.60;;
74939;SDS011;63505;45.226;37.908;2022-11-15T06:26:44;25.27;;;14.15;;
74939;SDS011;63505;45.226;37.908;2022-11-15T06:29:28;34.17;;;10.77;;
74939;SDS011;63505;45.226;37.908;2022-11-15T06:32:12;54.00;;;16.45;;
74939;SDS011;63505;45.226;37.908;2022-11-15T06:34:56;30.80;;;7.50;;
74939;SDS011;63505;45.226;37.908;2022-11-15T06:37:41;74.68;;;16.23;;
74939;SDS011;63505;45.226;37.908;2022-11-15T06:40:25;44.28;;;14.77;;
74939;SDS011;63505;45.226;37.908;2022-11-15T06:43:09;24.75;;;7.88;;
74939;SDS011;63505;45.226;37.908;2022-11-15T06:45:53;7.75;;;5.03;;
74939;SDS011;63505;45.226;37.908;2022-11-15T06:48:37;64.53;;;16.83;;
74939;SDS011;63505;45.226;37.908;2022-11-15T06:51:21;30.85;;;9.50;;
74939;SDS011;63505;45.226;37.908;2022-11-15T06:54:05;93.47;;;13.25;;
74939;SDS011;63505;45.226;37.908;2022-11-15T06:56:49;43.72;;;13.45;;
74939;SDS011;63505;45.226;37.908;2022-11-15T06:59:34;61.45;;;15.63;;
74939;SDS011;63505;45.226;37.908;2022-11-15T07:02:17;33.88;;;15.32;;
74939;SDS011;63505;45.226;37.908;2022-11-15T07:05:02;60.00;;;17.33;;
74939;SDS011;63505;45.226;37.908;2022-11-15T07:07:50;51.38;;;14.45;;
74939;SDS011;63505;45.226;37.908;2022-11-15T07:10:35;35.20;;;11.98;;
74939;SDS011;63505;45.226;37.908;2022-11-15T07:13:19;52.22;;;12.20;;
74939;SDS011;63505;45.226;37.908;2022-11-15T07:16:04;49.65;;;9.57;;
74939;SDS011;63505;45.226;37.908;2022-11-15T07:18:49;54.13;;;19.23;;
74939;SDS011;63505;45.226;37.908;2022-11-15T07:21:32;53.38;;;15.30;;
74939;SDS011;63505;45.226;37.908;2022-11-15T07:24:16;56.80;;;24.20;;
74939;SDS011;63505;45.226;37.908;2022-11-15T07:27:00;27.17;;;11.68;;
74939;SDS011;63505;45.226;37.908;2022-11-15T07:29:44;58.45;;;20.23;;
74939;SDS011;63505;45.226;37.908;2022-11-15T07:32:28;40.95;;;17.65;;
74939;SDS011;63505;45.226;37.908;2022-11-15T07:35:13;29.35;;;13.23;;
74939;SDS011;63505;45.226;37.908;2022-11-15T07:37:57;36.63;;;18.08;;
74939;SDS011;63505;45.226;37.908;2022-11-15T07:40:42;20.20;;;8.45;;
74939;SDS011;63505;45.226;37.908;2022-11-15T07:43:26;46.20;;;11.30;;
74939;SDS011;63505;45.226;37.908;2022-11-15T07:46:16;44.45;;;17.13;;
74939;SDS011;63505;45.226;37.908;2022-11-15T07:49:00;44.97;;;14.40;;
74939;SDS011;63505;45.226;37.908;2022-11-15T07:51:44;52.10;;;16.85;;
74939;SDS011;63505;45.226;37.908;2022-11-15T07:54:28;52.90;;;15.13;;
74939;SDS011;63505;45.226;37.908;2022-11-15T07:57:12;20.40;;;10.65;;
74939;SDS011;63505;45.226;37.908;2022-11-15T07:59:57;26.85;;;12.57;;
74939;SDS011;63505;45.226;37.908;2022-11-15T08:02:41;21.65;;;10.02;;
74939;SDS011;63505;45.226;37.908;2022-11-15T08:05:26;42.72;;;15.13;;
74939;SDS011;63505;45.226;37.908;2022-11-15T08:08:10;34.45;;;14.25;;
74939;SDS011;63505;45.226;37.908;2022-11-15T08:10:56;32.95;;;13.60;;
74939;SDS011;63505;45.226;37.908;2022-11-15T08:13:41;36.97;;;16.17;;
74939;SDS011;63505;45.226;37.908;2022-11-15T08:16:25;14.77;;;8.02;;
74939;SDS011;63505;45.226;37.908;2022-11-15T08:19:10;28.30;;;13.52;;
74939;SDS011;63505;45.226;37.908;2022-11-15T08:21:54;38.72;;;19.25;;
74939;SDS011;63505;45.226;37.908;2022-11-15T08:24:39;50.92;;;19.25;;
74939;SDS011;63505;45.226;37.908;2022-11-15T08:27:23;58.22;;;23.60;;
74939;SDS011;63505;45.226;37.908;2022-11-15T08:30:07;87.13;;;27.90;;
74939;SDS011;63505;45.226;37.908;2022-11-15T08:32:53;45.65;;;20.98;;
74939;SDS011;63505;45.226;37.908;2022-11-15T08:35:38;69.20;;;25.25;;
74939;SDS011;63505;45.226;37.908;2022-11-15T08:38:22;62.28;;;19.58;;
74939;SDS011;63505;45.226;37.908;2022-11-15T08:41:06;42.58;;;18.40;;
74939;SDS011;63505;45.226;37.908;2022-11-15T08:43:53;35.35;;;16.38;;
74939;SDS011;63505;45.226;37.908;2022-11-15T08:46:37;26.58;;;11.93;;
74939;SDS011;63505;45.226;37.908;2022-11-15T08:49:21;63.33;;;27.20;;
74939;SDS011;63505;45.226;37.908;2022-11-15T08:52:06;18.77;;;11.48;;
74939;SDS011;63505;45.226;37.908;2022-11-15T08:54:50;41.28;;;17.75;;
74939;SDS011;63505;45.226;37.908;2022-11-15T08:57:34;41.80;;;15.80;;
74939;SDS011;63505;45.226;37.908;2022-11-15T09:00:18;28.25;;;13.93;;
74939;SDS011;63505;45.226;37.908;2022-11-15T09:03:06;19.40;;;10.25;;
74939;SDS011;63505;45.226;37.908;2022-11-15T09:05:55;27.13;;;12.90;;
74939;SDS011;63505;45.226;37.908;2022-11-15T09:08:39;30.67;;;16.17;;
74939;SDS011;63505;45.226;37.908;2022-11-15T09:11:23;39.20;;;15.93;;
74939;SDS011;63505;45.226;37.908;2022-11-15T09:14:10;34.92;;;14.77;;
74939;SDS011;63505;45.226;37.908;2022-11-15T09:16:54;18.13;;;10.13;;
74939;SDS011;63505;45.226;37.908;2022-11-15T09:19:39;12.18;;;7.40;;
74939;SDS011;63505;45.226;37.908;2022-11-15T09:22:23;14.15;;;7.75;;
74939;SDS011;63505;45.226;37.908;2022-11-15T09:25:07;14.43;;;8.00;;
74939;SDS011;63505;45.226;37.908;2022-11-15T09:27:52;9.50;;;5.53;;
74939;SDS011;63505;45.226;37.908;2022-11-15T09:30:36;12.52;;;6.00;;
74939;SDS011;63505;45.226;37.908;2022-11-15T09:33:20;12.50;;;6.55;;
74939;SDS011;63505;45.226;37.908;2022-11-15T09:36:06;12.75;;;6.28;;
74939;SDS011;63505;45.226;37.908;2022-11-15T09:38:51;14.07;;;7.90;;
74939;SDS011;63505;45.226;37.908;2022-11-15T09:44:38;8.23;;;5.45;;
74939;SDS011;63505;45.226;37.908;2022-11-15T09:53:03;17.15;;;9.00;;
74939;SDS011;63505;45.226;37.908;2022-11-15T09:55:32;12.70;;;5.45;;
74939;SDS011;63505;45.226;37.908;2022-11-15T10:00:44;7.07;;;3.90;;
74939;SDS011;63505;45.226;37.908;2022-11-15T10:03:14;15.00;;;6.88;;
74939;SDS011;63505;45.226;37.908;2022-11-15T10:05:42;13.98;;;7.70;;
74939;SDS011;63505;45.226;37.908;2022-11-15T10:10:56;8.93;;;4.80;;
74939;SDS011;63505;45.226;37.908;2022-11-15T10:13:23;13.25;;;6.38;;
74939;SDS011;63505;45.226;37.908;2022-11-15T10:15:51;10.13;;;5.75;;
74939;SDS011;63505;45.226;37.908;2022-11-15T10:18:19;13.13;;;7.57;;
74939;SDS011;63505;45.226;37.908;2022-11-15T10:20:48;12.50;;;6.75;;
74939;SDS011;63505;45.226;37.908;2022-11-15T10:23:15;16.65;;;9.13;;
74939;SDS011;63505;45.226;37.908;2022-11-15T10:25:41;18.08;;;10.02;;
74939;SDS011;63505;45.226;37.908;2022-11-15T10:28:11;14.50;;;6.60;;
74939;SDS011;63505;45.226;37.908;2022-11-15T10:30:40;11.38;;;5.68;;
74939;SDS011;63505;45.226;37.908;2022-11-15T10:43:41;10.57;;;5.40;;
74939;SDS011;63505;45.226;37.908;2022-11-15T10:46:23;16.17;;;7.88;;
74939;SDS011;63505;45.226;37.908;2022-11-15T10:48:49;8.73;;;5.25;;
74939;SDS011;63505;45.226;37.908;2022-11-15T10:51:26;12.75;;;6.90;;
74939;SDS011;63505;45.226;37.908;2022-11-15T10:53:57;4.38;;;3.10;;
74939;SDS011;63505;45.226;37.908;2022-11-15T10:56:24;8.18;;;4.30;;
74939;SDS011;63505;45.226;37.908;2022-11-15T10:58:51;14.32;;;5.82;;
74939;SDS011;63505;45.226;37.908;2022-11-15T11:01:27;13.68;;;6.82;;
74939;SDS011;63505;45.226;37.908;2022-11-15T11:04:02;10.18;;;4.57;;
74939;SDS011;63505;45.226;37.908;2022-11-15T11:06:28;15.98;;;8.40;;
74939;SDS011;63505;45.226;37.908;2022-11-15T11:11:19;9.90;;;5.60;;
74939;SDS011;63505;45.226;37.908;2022-11-15T11:13:45;22.60;;;11.90;;
74939;SDS011;63505;45.226;37.908;2022-11-15T11:21:19;17.65;;;8.63;;
74939;SDS011;63505;45.226;37.908;2022-11-15T11:37:03;16.10;;;8.02;;
74939;SDS011;63505;45.226;37.908;2022-11-15T11:39:42;15.32;;;8.57;;
74939;SDS011;63505;45.226;37.908;2022-11-15T11:42:26;26.13;;;9.35;;
74939;SDS011;63505;45.226;37.908;2022-11-15T11:45:19;12.40;;;5.20;;
74939;SDS011;63505;45.226;37.908;2022-11-15T11:47:53;8.88;;;4.32;;
74939;SDS011;63505;45.226;37.908;2022-11-15T11:50:23;12.52;;;5.05;;
74939;SDS011;63505;45.226;37.908;2022-11-15T11:55:41;16.27;;;7.20;;
74939;SDS011;63505;45.226;37.908;2022-11-15T12:00:34;17.23;;;8.50;;
74939;SDS011;63505;45.226;37.908;2022-11-15T12:03:23;22.55;;;9.18;;
74939;SDS011;63505;45.226;37.908;2022-11-15T12:05:50;20.77;;;10.60;;
74939;SDS011;63505;45.226;37.908;2022-11-15T12:10:42;14.45;;;8.18;;
74939;SDS011;63505;45.226;37.908;2022-11-15T12:13:11;24.05;;;11.48;;
74939;SDS011;63505;45.226;37.908;2022-11-15T12:15:40;33.22;;;13.75;;
74939;SDS011;63505;45.226;37.908;2022-11-15T12:18:08;12.35;;;6.85;;
74939;SDS011;63505;45.226;37.908;2022-11-15T12:20:39;20.85;;;9.00;;
74939;SDS011;63505;45.226;37.908;2022-11-15T12:23:07;25.15;;;13.20;;
74939;SDS011;63505;45.226;37.908;2022-11-15T12:30:45;44.55;;;20.13;;
74939;SDS011;63505;45.226;37.908;2022-11-15T12:41:36;75.72;;;31.60;;
74939;SDS011;63505;45.226;37.908;2022-11-15T12:44:02;99.78;;;38.92;;
74939;SDS011;63505;45.226;37.908;2022-11-15T12:48:55;69.70;;;33.00;;
74939;SDS011;63505;45.226;37.908;2022-11-15T12:51:22;53.65;;;26.70;;
74939;SDS011;63505;45.226;37.908;2022-11-15T12:53:48;83.90;;;37.30;;
74939;SDS011;63505;45.226;37.908;2022-11-15T12:58:44;94.47;;;42.08;;
74939;SDS011;63505;45.226;37.908;2022-11-15T13:06:44;88.32;;;36.95;;
74939;SDS011;63505;45.226;37.908;2022-11-15T13:11:54;92.43;;;38.80;;
74939;SDS011;63505;45.226;37.908;2022-11-15T13:19:59;103.97;;;43.47;;
74939;SDS011;63505;45.226;37.908;2022-11-15T13:22:27;108.28;;;48.15;;
74939;SDS011;63505;45.226;37.908;2022-11-15T13:27:46;116.70;;;52.67;;
74939;SDS011;63505;45.226;37.908;2022-11-15T13:30:22;66.30;;;31.00;;
74939;SDS011;63505;45.226;37.908;2022-11-15T13:32:48;86.57;;;39.63;;
74939;SDS011;63505;45.226;37.908;2022-11-15T13:35:19;83.20;;;34.45;;
74939;SDS011;63505;45.226;37.908;2022-11-15T13:37:45;71.80;;;32.58;;
74939;SDS011;63505;45.226;37.908;2022-11-15T13:42:49;73.43;;;28.88;;
74939;SDS011;63505;45.226;37.908;2022-11-15T13:45:16;54.97;;;25.70;;
74939;SDS011;63505;45.226;37.908;2022-11-15T13:47:42;51.55;;;22.23;;
74939;SDS011;63505;45.226;37.908;2022-11-15T13:50:11;54.78;;;22.08;;
74939;SDS011;63505;45.226;37.908;2022-11-15T13:52:38;50.38;;;24.23;;
74939;SDS011;63505;45.226;37.908;2022-11-15T13:55:11;54.67;;;24.15;;
74939;SDS011;63505;45.226;37.908;2022-11-15T14:00:05;58.20;;;23.63;;
74939;SDS011;63505;45.226;37.908;2022-11-15T14:02:39;58.00;;;22.88;;
74939;SDS011;63505;45.226;37.908;2022-11-15T14:05:14;50.17;;;23.77;;
74939;SDS011;63505;45.226;37.908;2022-11-15T14:07:40;58.05;;;24.38;;
74939;SDS011;63505;45.226;37.908;2022-11-15T14:10:38;55.35;;;25.25;;
74939;SDS011;63505;45.226;37.908;2022-11-15T14:13:04;58.90;;;24.13;;
74939;SDS011;63505;45.226;37.908;2022-11-15T14:15:34;65.55;;;25.27;;
74939;SDS011;63505;45.226;37.908;2022-11-15T14:18:00;69.05;;;27.48;;
74939;SDS011;63505;45.226;37.908;2022-11-15T14:20:30;66.97;;;26.52;;
74939;SDS011;63505;45.226;37.908;2022-11-15T14:22:58;59.50;;;26.75;;
74939;SDS011;63505;45.226;37.908;2022-11-15T14:25:25;61.30;;;26.90;;
74939;SDS011;63505;45.226;37.908;2022-11-15T14:28:09;57.35;;;26.73;;
74939;SDS011;63505;45.226;37.908;2022-11-15T14:30:35;67.88;;;29.75;;
74939;SDS011;63505;45.226;37.908;2022-11-15T14:33:00;78.57;;;28.45;;
74939;SDS011;63505;45.226;37.908;2022-11-15T14:35:26;76.47;;;30.20;;
74939;SDS011;63505;45.226;37.908;2022-11-15T14:37:52;79.45;;;31.23;;
74939;SDS011;63505;45.226;37.908;2022-11-15T14:40:19;88.78;;;34.00;;
74939;SDS011;63505;45.226;37.908;2022-11-15T14:42:45;73.65;;;29.00;;
74939;SDS011;63505;45.226;37.908;2022-11-15T14:45:12;82.88;;;31.02;;
74939;SDS011;63505;45.226;37.908;2022-11-15T14:47:38;73.60;;;32.00;;
74939;SDS011;63505;45.226;37.908;2022-11-15T14:50:04;63.03;;;25.10;;
74939;SDS011;63505;45.226;37.908;2022-11-15T14:52:31;66.70;;;26.15;;
74939;SDS011;63505;45.226;37.908;2022-11-15T14:54:59;68.93;;;27.80;;
74939;SDS011;63505;45.226;37.908;2022-11-15T14:57:27;66.85;;;25.35;;
74939;SDS011;63505;45.226;37.908;2022-11-15T14:59:53;58.80;;;25.92;;
74939;SDS011;63505;45.226;37.908;2022-11-15T15:02:23;60.92;;;26.15;;
74939;SDS011;63505;45.226;37.908;2022-11-15T15:04:49;66.75;;;24.85;;
74939;SDS011;63505;45.226;37.908;2022-11-15T15:07:15;53.78;;;25.10;;
74939;SDS011;63505;45.226;37.908;2022-11-15T15:09:41;55.38;;;26.35;;
74939;SDS011;63505;45.226;37.908;2022-11-15T15:12:17;74.93;;;34.25;;
74939;SDS011;63505;45.226;37.908;2022-11-15T15:14:43;48.58;;;23.10;;
74939;SDS011;63505;45.226;37.908;2022-11-15T15:17:08;66.78;;;25.15;;
74939;SDS011;63505;45.226;37.908;2022-11-15T15:19:34;51.97;;;25.17;;
74939;SDS011;63505;45.226;37.908;2022-11-15T15:21:59;42.30;;;21.88;;
74939;SDS011;63505;45.226;37.908;2022-11-15T15:24:25;54.53;;;23.10;;
74939;SDS011;63505;45.226;37.908;2022-11-15T15:26:51;62.38;;;23.70;;
74939;SDS011;63505;45.226;37.908;2022-11-15T15:29:17;79.28;;;31.05;;
74939;SDS011;63505;45.226;37.908;2022-11-15T15:31:42;63.88;;;29.88;;
74939;SDS011;63505;45.226;37.908;2022-11-15T15:34:08;97.25;;;40.03;;
74939;SDS011;63505;45.226;37.908;2022-11-15T15:36:33;77.30;;;35.85;;
74939;SDS011;63505;45.226;37.908;2022-11-15T15:38:59;69.75;;;32.28;;
74939;SDS011;63505;45.226;37.908;2022-11-15T15:41:25;96.60;;;42.40;;
74939;SDS011;63505;45.226;37.908;2022-11-15T15:43:50;45.13;;;19.92;;
74939;SDS011;63505;45.226;37.908;2022-11-15T15:46:17;59.67;;;27.63;;
74939;SDS011;63505;45.226;37.908;2022-11-15T15:48:43;52.63;;;27.02;;
74939;SDS011;63505;45.226;37.908;2022-11-15T15:51:08;80.32;;;38.15;;
74939;SDS011;63505;45.226;37.908;2022-11-15T15:53:34;75.28;;;36.90;;
74939;SDS011;63505;45.226;37.908;2022-11-15T15:56:00;73.82;;;34.00;;
74939;SDS011;63505;45.226;37.908;2022-11-15T15:58:25;50.85;;;24.13;;
74939;SDS011;63505;45.226;37.908;2022-11-15T16:00:51;49.45;;;20.33;;
74939;SDS011;63505;45.226;37.908;2022-11-15T16:03:17;83.28;;;38.97;;
74939;SDS011;63505;45.226;37.908;2022-11-15T16:05:43;59.97;;;27.63;;
74939;SDS011;63505;45.226;37.908;2022-11-15T16:08:21;119.45;;;47.78;;
74939;SDS011;63505;45.226;37.908;2022-11-15T16:10:47;91.57;;;46.17;;
74939;SDS011;63505;45.226;37.908;2022-11-15T16:13:13;118.30;;;49.00;;
74939;SDS011;63505;45.226;37.908;2022-11-15T16:15:39;127.28;;;56.35;;
74939;SDS011;63505;45.226;37.908;2022-11-15T16:18:04;157.38;;;60.40;;
74939;SDS011;63505;45.226;37.908;2022-11-15T16:22:58;153.65;;;58.08;;
74939;SDS011;63505;45.226;37.908;2022-11-15T16:25:25;169.10;;;57.80;;
74939;SDS011;63505;45.226;37.908;2022-11-15T16:27:51;139.65;;;51.58;;
74939;SDS011;63505;45.226;37.908;2022-11-15T16:30:18;135.43;;;53.00;;
74939;SDS011;63505;45.226;37.908;2022-11-15T16:32:44;135.75;;;53.30;;
74939;SDS011;63505;45.226;37.908;2022-11-15T16:35:13;145.23;;;55.30;;
74939;SDS011;63505;45.226;37.908;2022-11-15T16:37:39;135.15;;;51.65;;
74939;SDS011;63505;45.226;37.908;2022-11-15T16:42:34;120.57;;;48.22;;
74939;SDS011;63505;45.226;37.908;2022-11-15T16:45:00;175.57;;;77.47;;
74939;SDS011;63505;45.226;37.908;2022-11-15T16:47:26;130.18;;;51.35;;
74939;SDS011;63505;45.226;37.908;2022-11-15T16:49:51;91.90;;;39.58;;
74939;SDS011;63505;45.226;37.908;2022-11-15T16:52:17;92.03;;;43.92;;
74939;SDS011;63505;45.226;37.908;2022-11-15T16:54:44;116.00;;;45.72;;
74939;SDS011;63505;45.226;37.908;2022-11-15T16:57:09;88.50;;;37.88;;
74939;SDS011;63505;45.226;37.908;2022-11-15T16:59:36;106.82;;;46.88;;
74939;SDS011;63505;45.226;37.908;2022-11-15T17:02:01;128.23;;;47.97;;
74939;SDS011;63505;45.226;37.908;2022-11-15T17:04:27;97.75;;;41.10;;
74939;SDS011;63505;45.226;37.908;2022-11-15T17:06:58;69.07;;;30.40;;
74939;SDS011;63505;45.226;37.908;2022-11-15T17:09:23;114.43;;;46.00;;
74939;SDS011;63505;45.226;37.908;2022-11-15T17:11:49;136.77;;;54.58;;
74939;SDS011;63505;45.226;37.908;2022-11-15T17:14:15;157.57;;;68.18;;
74939;SDS011;63505;45.226;37.908;2022-11-15T17:16:41;192.63;;;79.43;;
74939;SDS011;63505;45.226;37.908;2022-11-15T17:19:12;147.57;;;61.40;;
74939;SDS011;63505;45.226;37.908;2022-11-15T17:21:39;193.75;;;73.20;;
74939;SDS011;63505;45.226;37.908;2022-11-15T17:24:04;201.43;;;83.15;;
74939;SDS011;63505;45.226;37.908;2022-11-15T17:26:30;192.73;;;76.25;;
74939;SDS011;63505;45.226;37.908;2022-11-15T17:28:56;168.00;;;69.75;;
74939;SDS011;63505;45.226;37.908;2022-11-15T17:31:22;136.65;;;62.50;;
74939;SDS011;63505;45.226;37.908;2022-11-15T17:33:48;160.95;;;69.35;;